Airfield :







YOU CAN JOIN US ON...

 
LOGIN :

Register | Disclaimer

   EN    FR    IT 

 









Legend :    VFR   Marginal VFR   IFR   Intensive IFR   Very Intensive IFR
Visi :
Ceiling :
>= 8 km
>= 3000ft
5 to 8 km
1000 to 3000 ft
1500m to 5 km
500 to 1000 ft
800 to 1500m
200 to 500 ft
< 800m
< 200 ft
Symbols :   Thunderstorms  Fog  Heavy snow  Heavy precipitations  Wind > 20 kt






- Airport Elevation : 76 ft
- IATA code : PWM


KPWM - Portland International Jetport

CURRENT METAR :
  • 171851Z 08009KT 10SM SCT045 18/09 A3025 RMK AO2 SLP244 T01780089

EXPIRED METARs :
  • 171751Z 09009KT 10SM SCT045 19/10 A3026 RMK AO2 SLP245 T01890100 10189 20139 58007
  • 171651Z 08009KT 10SM FEW035 18/11 A3026 RMK AO2 SLP248 T01780106

TAF KPWM
Valid from the 17 at 18:00 until the 18 at 18:00 UTC


171731Z 1718/1818 09006KT P6SM FEW040 FEW250
FM172200 18004KT P6SM SCT250
FM181300 29006KT P6SM BKN100
KZBW FIR / North America



MET'MAP, your aeronautical weather chart ! - Copyright ORBIFLY December 2007 - Disclaimer

ORBIFLY MET'MAP TEAM :

Programming & Development : Alexandra Zaïnal
Concept & original design : Baudouin d'Aumeries
Assistance for programming : Marc-Olivier Méhu
Technical & hardware support : Manuel Goepfert

Contact : metmap@orbifly.com




SOURCES & CREDITS :

   NOAA